createdAt,value
2023-03-26T00:01:21.177Z,98918.44
2023-03-26T00:03:53.618Z,98878.91
2023-03-26T00:06:23.035Z,98887.50
2023-03-26T00:08:50.123Z,98768.06
2023-03-26T00:11:18.696Z,98917.13
2023-03-26T00:13:46.772Z,98914.16
2023-03-26T00:16:18.318Z,98920.47
2023-03-26T00:18:44.994Z,98914.53
2023-03-26T00:21:20.995Z,98915.16
2023-03-26T00:23:49.275Z,98447.69
2023-03-26T00:26:17.511Z,98929.09
2023-03-26T00:28:44.689Z,98945.84
2023-03-26T00:31:14.637Z,98768.69
2023-03-26T00:33:42.051Z,98835.84
2023-03-26T00:36:17.537Z,98922.59
2023-03-26T00:38:46.899Z,98775.19
2023-03-26T00:41:18.005Z,98902.44
2023-03-26T00:43:48.950Z,98917.56
2023-03-26T00:46:17.445Z,98827.94
2023-03-26T00:48:46.339Z,98929.63
2023-03-26T00:51:18.106Z,98880.22
2023-03-26T00:53:46.466Z,98931.06
2023-03-26T00:56:13.905Z,98936.63
2023-03-26T00:58:40.697Z,98932.75
2023-03-26T01:01:13.984Z,98941.34
2023-03-26T01:03:53.115Z,98501.63
2023-03-26T01:06:32.699Z,98927.72
2023-03-26T01:09:04.459Z,98755.91
2023-03-26T01:11:34.964Z,98576.88
2023-03-26T01:14:10.271Z,98890.66
2023-03-26T01:16:47.381Z,98936.59
2023-03-26T01:19:29.742Z,98955.28
2023-03-26T01:21:58.156Z,98955.69
2023-03-26T01:24:24.874Z,98900.16
2023-03-26T01:27:13.184Z,98966.31
2023-03-26T01:29:44.630Z,98961.00
2023-03-26T01:32:47.586Z,98804.00
2023-03-26T01:35:37.159Z,98953.88
2023-03-26T01:38:23.806Z,98958.69
2023-03-26T01:41:21.322Z,98965.53
2023-03-26T01:44:03.418Z,98841.69
2023-03-26T01:46:36.159Z,98963.63
2023-03-26T01:49:13.007Z,98956.50
2023-03-26T01:51:42.199Z,98979.72
2023-03-26T01:54:13.427Z,98957.94
2023-03-26T01:57:03.728Z,98905.41
2023-03-26T01:59:41.798Z,98972.75
2023-03-26T02:02:21.762Z,98535.81
2023-03-26T02:05:01.561Z,98968.16
2023-03-26T02:07:44.635Z,98790.19
2023-03-26T02:10:16.930Z,98477.38
2023-03-26T02:12:45.773Z,98986.13
2023-03-26T02:15:13.275Z,98980.69
2023-03-26T02:17:40.462Z,98925.72
2023-03-26T02:20:14.207Z,98830.88
2023-03-26T02:22:45.940Z,98982.50
2023-03-26T02:25:20.483Z,98921.06
2023-03-26T02:27:52.256Z,98954.28
2023-03-26T02:30:25.695Z,98806.38
2023-03-26T02:32:59.105Z,98890.53
2023-03-26T02:35:29.570Z,98842.53
2023-03-26T02:37:59.637Z,98836.44
2023-03-26T02:40:26.405Z,98971.38
2023-03-26T02:42:53.138Z,98980.22
2023-03-26T02:45:19.914Z,98827.94
2023-03-26T02:48:24.669Z,98995.16
2023-03-26T02:50:54.994Z,98997.59
2023-03-26T02:53:41.286Z,98984.13
2023-03-26T02:56:24.816Z,98919.91
2023-03-26T02:59:04.726Z,98850.44
2023-03-26T03:01:35.033Z,98987.19
2023-03-26T03:04:04.274Z,98993.59
2023-03-26T03:06:40.931Z,98949.78
2023-03-26T03:09:11.172Z,98703.50
2023-03-26T03:11:39.374Z,98987.00
2023-03-26T03:14:07.155Z,98989.34
2023-03-26T03:16:34.608Z,98987.19
2023-03-26T03:19:10.699Z,98808.56
2023-03-26T03:21:41.058Z,98996.63
2023-03-26T03:24:09.506Z,99001.88
2023-03-26T03:26:42.372Z,99000.94
2023-03-26T03:29:24.398Z,99013.16
2023-03-26T03:31:51.529Z,99006.75
2023-03-26T03:34:38.669Z,98906.34
2023-03-26T03:37:06.177Z,99007.25
2023-03-26T03:39:41.448Z,99001.81
2023-03-26T03:42:08.610Z,99017.25
2023-03-26T03:44:36.143Z,99020.28
2023-03-26T03:47:10.952Z,99020.84
2023-03-26T03:49:37.584Z,98844.19
2023-03-26T03:52:04.313Z,99018.03
2023-03-26T03:54:37.043Z,98959.25
2023-03-26T03:57:31.138Z,98859.28
2023-03-26T04:00:01.461Z,99020.69
2023-03-26T04:02:42.969Z,99019.28
2023-03-26T04:05:11.737Z,98831.47
2023-03-26T04:07:45.287Z,99027.13
2023-03-26T04:10:26.903Z,99034.19
2023-03-26T04:13:13.295Z,98958.41
2023-03-26T04:16:06.116Z,99034.41
2023-03-26T04:18:33.101Z,98913.59
2023-03-26T04:21:07.682Z,99034.84
2023-03-26T04:23:34.783Z,99045.19
2023-03-26T04:26:13.358Z,98981.94
2023-03-26T04:29:06.233Z,98935.81
2023-03-26T04:31:36.222Z,99053.63
2023-03-26T04:34:08.023Z,99042.53
2023-03-26T04:36:42.850Z,99051.50
2023-03-26T04:39:13.120Z,99047.13
2023-03-26T04:42:10.012Z,99046.72
2023-03-26T04:44:50.792Z,98931.03
2023-03-26T04:47:18.828Z,99054.53
2023-03-26T04:49:47.725Z,98902.75
2023-03-26T04:52:15.913Z,99058.63
2023-03-26T04:54:57.681Z,98997.75
2023-03-26T04:57:38.369Z,98971.75
2023-03-26T05:00:16.108Z,99060.78
2023-03-26T05:02:45.946Z,99067.78
2023-03-26T05:05:12.830Z,98988.47
2023-03-26T05:07:39.661Z,99073.56
2023-03-26T05:10:14.141Z,99075.88
2023-03-26T05:12:49.728Z,99032.00
2023-03-26T05:15:20.623Z,99047.28
2023-03-26T05:18:01.136Z,99057.22
2023-03-26T05:20:38.288Z,99070.09
2023-03-26T05:23:08.064Z,99078.22
2023-03-26T05:25:43.515Z,99070.06
2023-03-26T05:28:23.292Z,99078.25
2023-03-26T05:30:56.782Z,99086.19
2023-03-26T05:33:26.175Z,99078.31
2023-03-26T05:36:07.163Z,98871.78
2023-03-26T05:38:34.053Z,99083.50
2023-03-26T05:41:06.239Z,99081.09
2023-03-26T05:43:34.648Z,99084.34
2023-03-26T05:46:07.754Z,98845.63
2023-03-26T05:48:34.550Z,99088.78
2023-03-26T05:51:01.584Z,99098.34
2023-03-26T05:53:30.840Z,99092.25
2023-03-26T05:56:16.073Z,98910.53
2023-03-26T05:59:01.586Z,98947.72
2023-03-26T06:01:29.363Z,98870.09
2023-03-26T06:04:18.656Z,99104.97
2023-03-26T06:07:02.275Z,99107.63
2023-03-26T06:09:29.515Z,99134.53
2023-03-26T06:11:56.468Z,98919.66
2023-03-26T06:14:23.172Z,99051.75
2023-03-26T06:17:12.048Z,99114.44
2023-03-26T06:20:14.576Z,98942.19
2023-03-26T06:22:44.873Z,99096.88
2023-03-26T06:25:21.057Z,99119.97
2023-03-26T06:28:13.831Z,99122.72
2023-03-26T06:30:50.157Z,99124.19
2023-03-26T06:33:30.018Z,99117.34
2023-03-26T06:35:58.099Z,99126.50
2023-03-26T06:38:25.440Z,99032.09
2023-03-26T06:40:52.541Z,99130.63
2023-03-26T06:43:24.970Z,99130.38
2023-03-26T06:46:11.210Z,99136.31
2023-03-26T06:48:38.420Z,99138.59
2023-03-26T06:51:27.975Z,99086.09
2023-03-26T06:54:04.100Z,99140.53
2023-03-26T06:56:49.385Z,98906.38
2023-03-26T06:59:29.728Z,98970.97
2023-03-26T07:02:14.757Z,99142.34
2023-03-26T07:04:59.892Z,99153.91
2023-03-26T07:07:46.325Z,98951.16
2023-03-26T07:10:36.943Z,99158.41
2023-03-26T07:13:17.217Z,99159.09
2023-03-26T07:16:02.478Z,99142.00
2023-03-26T07:18:58.544Z,99153.25
2023-03-26T07:21:30.857Z,99168.56
2023-03-26T07:23:59.737Z,99164.56
2023-03-26T07:27:09.931Z,99171.66
2023-03-26T07:29:57.629Z,99068.81
2023-03-26T07:32:59.447Z,99171.09
2023-03-26T07:36:03.254Z,99176.72
2023-03-26T07:38:54.347Z,99173.84
2023-03-26T07:41:50.908Z,99169.63
2023-03-26T07:44:53.981Z,99103.66
2023-03-26T07:47:42.394Z,99178.03
2023-03-26T07:50:21.188Z,99129.66
2023-03-26T07:53:02.290Z,98964.50
2023-03-26T07:56:20.460Z,99181.34
2023-03-26T07:59:19.470Z,99177.88
2023-03-26T08:02:44.210Z,99195.97
2023-03-26T08:06:09.060Z,98808.38
2023-03-26T08:09:03.568Z,99186.06
2023-03-26T08:12:12.549Z,99027.22
2023-03-26T08:14:49.802Z,98948.19
2023-03-26T08:17:37.912Z,99199.34
2023-03-26T08:20:23.076Z,99191.06
2023-03-26T08:22:58.709Z,99203.06
2023-03-26T08:25:35.127Z,99191.50
2023-03-26T08:28:11.968Z,99042.69
2023-03-26T08:30:38.701Z,99018.00
2023-03-26T08:33:20.644Z,99188.97
2023-03-26T08:35:48.532Z,99036.88
2023-03-26T08:38:18.779Z,99201.34
2023-03-26T08:41:11.567Z,99198.81
2023-03-26T08:44:20.740Z,99195.94
2023-03-26T08:47:18.364Z,99194.63
2023-03-26T08:50:15.484Z,99189.94
2023-03-26T08:52:42.075Z,99201.22
2023-03-26T08:55:46.322Z,99208.00
2023-03-26T08:58:50.665Z,99209.22
2023-03-26T09:01:48.125Z,99212.47
2023-03-26T09:04:52.859Z,99213.22
2023-03-26T09:07:26.186Z,99207.38
2023-03-26T09:10:27.013Z,99204.31
2023-03-26T09:13:34.022Z,99205.69
2023-03-26T09:16:38.319Z,99199.25
2023-03-26T09:19:17.373Z,99198.91
2023-03-26T09:22:02.744Z,99203.69
2023-03-26T09:24:40.349Z,99208.63
2023-03-26T09:27:44.913Z,99208.16
2023-03-26T09:30:29.595Z,99201.59
2023-03-26T09:33:13.587Z,99203.19
2023-03-26T09:36:26.094Z,99221.88
2023-03-26T09:39:31.330Z,99206.88
2023-03-26T09:42:09.222Z,99209.00
2023-03-26T09:44:55.509Z,99204.59
2023-03-26T09:47:41.387Z,99211.81
2023-03-26T09:50:14.029Z,99204.44
2023-03-26T09:52:54.997Z,99059.47
2023-03-26T09:55:44.710Z,99208.41
2023-03-26T09:58:42.210Z,99197.09
2023-03-26T10:01:25.139Z,99204.50
2023-03-26T10:03:57.083Z,99203.94
2023-03-26T10:06:53.829Z,99203.84
2023-03-26T10:09:43.415Z,99207.00
2023-03-26T10:12:21.451Z,99208.00
2023-03-26T10:15:03.109Z,99209.72
2023-03-26T10:17:48.591Z,99206.34
2023-03-26T10:20:30.725Z,99213.13
2023-03-26T10:23:37.977Z,99213.19
2023-03-26T10:26:16.120Z,99158.59
2023-03-26T10:29:04.678Z,99210.25
2023-03-26T10:31:53.274Z,99215.56
2023-03-26T10:34:32.358Z,99217.88
2023-03-26T10:37:18.192Z,99213.19
2023-03-26T10:40:02.594Z,99212.84
2023-03-26T10:43:01.080Z,99218.25
2023-03-26T10:45:37.010Z,99212.69
2023-03-26T10:48:18.226Z,99190.47
2023-03-26T10:50:50.850Z,99210.88
2023-03-26T10:53:45.227Z,99209.50
2023-03-26T10:56:26.566Z,99217.16
2023-03-26T10:58:56.864Z,99175.53
2023-03-26T11:01:48.137Z,99228.31
2023-03-26T11:04:23.415Z,99222.38
2023-03-26T11:07:22.356Z,99081.09
2023-03-26T11:10:25.537Z,99218.72
2023-03-26T11:13:04.838Z,99221.50
2023-03-26T11:16:06.583Z,99226.41
2023-03-26T11:18:59.330Z,99214.81
2023-03-26T11:22:02.441Z,99215.69
2023-03-26T11:24:29.031Z,99212.09
2023-03-26T11:27:15.439Z,99216.25
2023-03-26T11:30:07.676Z,99215.66
2023-03-26T11:32:44.061Z,99191.16
2023-03-26T11:35:44.795Z,99208.75
2023-03-26T11:38:40.166Z,99218.28
2023-03-26T11:41:15.912Z,99212.34
2023-03-26T11:44:04.002Z,99219.81
2023-03-26T11:46:33.829Z,99212.56
2023-03-26T11:49:06.838Z,99001.75
2023-03-26T11:51:51.860Z,99216.03
2023-03-26T11:54:21.104Z,99181.16
2023-03-26T11:57:05.546Z,99057.84
2023-03-26T12:00:16.879Z,99214.56
2023-03-26T12:02:46.053Z,99208.06
2023-03-26T12:05:26.464Z,99149.00
2023-03-26T12:07:58.011Z,99216.56
2023-03-26T12:10:39.291Z,99217.75
2023-03-26T12:13:30.344Z,99225.53
2023-03-26T12:16:06.907Z,99249.44
2023-03-26T12:18:34.241Z,99125.59
2023-03-26T12:21:17.606Z,99214.06
2023-03-26T12:24:00.033Z,99279.84
2023-03-26T12:26:42.786Z,99215.09
2023-03-26T12:29:17.298Z,99216.00
2023-03-26T12:32:07.204Z,99091.00
2023-03-26T12:34:39.472Z,99223.97
2023-03-26T12:37:08.341Z,99168.16
2023-03-26T12:40:08.000Z,99221.78
2023-03-26T12:44:48.897Z,99251.22
2023-03-26T12:45:30.137Z,99221.28
2023-03-26T12:48:03.765Z,99119.34
2023-03-26T12:50:35.655Z,99223.13
2023-03-26T12:53:16.035Z,99220.84
2023-03-26T12:55:58.408Z,99221.66
2023-03-26T12:58:58.230Z,99218.97
2023-03-26T13:01:55.927Z,99217.97
2023-03-26T13:04:54.996Z,99239.69
2023-03-26T13:07:28.937Z,99223.88
2023-03-26T13:10:23.650Z,99224.47
2023-03-26T13:13:10.798Z,99234.44
2023-03-26T13:15:44.679Z,99179.38
2023-03-26T13:18:54.292Z,99228.38
2023-03-26T13:21:46.742Z,99055.75
2023-03-26T13:24:28.747Z,99141.75
2023-03-26T13:27:09.536Z,99236.31
2023-03-26T13:29:42.049Z,99239.38
2023-03-26T13:32:20.081Z,99237.53
2023-03-26T13:35:02.723Z,99231.03
2023-03-26T13:37:42.316Z,98945.06
2023-03-26T13:40:41.258Z,99218.69
2023-03-26T13:43:26.767Z,99217.03
2023-03-26T13:46:13.625Z,99013.03
2023-03-26T13:48:53.027Z,99215.72
2023-03-26T13:51:32.874Z,99221.38
2023-03-26T13:54:31.351Z,99087.78
2023-03-26T13:57:20.193Z,99235.19
2023-03-26T13:59:59.753Z,99231.47
2023-03-26T14:02:39.839Z,99221.59
2023-03-26T14:05:17.353Z,99230.25
2023-03-26T14:07:53.358Z,99088.69
2023-03-26T14:10:24.759Z,99227.66
2023-03-26T14:13:32.972Z,99226.94
2023-03-26T14:16:09.921Z,99221.88
2023-03-26T14:19:27.490Z,99234.47
2023-03-26T14:22:03.524Z,99220.97
2023-03-26T14:24:52.556Z,99223.75
2023-03-26T14:27:40.481Z,99227.53
2023-03-26T14:30:22.757Z,99223.84
2023-03-26T14:33:38.505Z,99220.34
2023-03-26T14:36:38.221Z,99226.41
2023-03-26T14:39:10.980Z,99229.31
2023-03-26T14:41:48.856Z,99229.31
2023-03-26T14:44:52.735Z,99223.34
2023-03-26T14:47:21.826Z,99231.66
2023-03-26T14:50:20.312Z,99223.19
2023-03-26T14:52:51.657Z,99231.03
2023-03-26T14:55:52.093Z,99197.97
2023-03-26T14:58:56.132Z,99229.59
2023-03-26T15:01:28.236Z,99231.88
2023-03-26T15:04:32.715Z,99224.75
2023-03-26T15:07:22.725Z,99235.06
2023-03-26T15:10:10.043Z,99230.66
2023-03-26T15:13:01.585Z,99228.19
2023-03-26T15:15:38.894Z,98986.97
2023-03-26T15:18:44.462Z,99230.66
2023-03-26T15:21:11.105Z,99229.94
2023-03-26T15:24:23.670Z,99231.16
2023-03-26T15:27:09.046Z,99228.47
2023-03-26T15:29:54.580Z,99233.53
2023-03-26T15:32:57.219Z,99231.03
2023-03-26T15:35:42.433Z,99236.84
2023-03-26T15:38:28.289Z,99236.72
2023-03-26T15:41:18.754Z,99242.91
2023-03-26T15:44:23.337Z,99238.47
2023-03-26T15:46:53.878Z,99249.59
2023-03-26T15:49:34.034Z,99252.56
2023-03-26T15:52:19.544Z,99244.94
2023-03-26T15:55:16.788Z,99242.81
2023-03-26T15:58:07.793Z,99252.06
2023-03-26T16:00:51.907Z,99245.91
2023-03-26T16:03:31.019Z,99252.56
2023-03-26T16:06:18.805Z,99253.22
2023-03-26T16:09:07.950Z,99251.97
2023-03-26T16:11:57.053Z,99180.31
2023-03-26T16:14:42.144Z,99226.84
2023-03-26T16:17:27.070Z,99255.78
2023-03-26T16:20:19.540Z,99035.09
2023-03-26T16:22:56.601Z,99267.81
2023-03-26T16:25:32.766Z,99268.53
2023-03-26T16:28:22.274Z,99262.16
2023-03-26T16:31:37.064Z,98890.16
2023-03-26T16:34:07.188Z,99265.44
2023-03-26T16:36:41.916Z,99030.41
2023-03-26T16:39:08.658Z,99275.53
2023-03-26T16:41:46.851Z,99275.66
2023-03-26T16:44:23.709Z,99210.06
2023-03-26T16:47:02.550Z,99269.28
2023-03-26T16:49:48.079Z,99269.88
2023-03-26T16:52:42.800Z,99269.59
2023-03-26T16:55:18.406Z,99272.97
2023-03-26T16:57:56.346Z,99006.47
2023-03-26T17:00:29.209Z,99213.75
2023-03-26T17:03:13.582Z,98868.97
2023-03-26T17:06:06.719Z,99285.53
2023-03-26T17:08:45.600Z,99287.31
2023-03-26T17:11:51.037Z,99226.84
2023-03-26T17:14:50.115Z,99291.41
2023-03-26T17:17:50.669Z,99296.66
2023-03-26T17:20:36.797Z,99261.41
2023-03-26T17:23:23.425Z,99042.47
2023-03-26T17:26:08.869Z,99277.34
2023-03-26T17:28:50.520Z,99313.88
2023-03-26T17:31:26.350Z,99309.63
2023-03-26T17:33:53.669Z,99316.34
2023-03-26T17:36:29.748Z,99308.41
2023-03-26T17:39:02.862Z,99273.06
2023-03-26T17:41:50.802Z,99321.69
2023-03-26T17:44:44.631Z,99325.72
2023-03-26T17:47:46.819Z,99330.03
2023-03-26T17:50:19.775Z,99332.09
2023-03-26T17:52:57.017Z,98803.22
2023-03-26T17:55:32.845Z,99334.66
2023-03-26T17:58:02.806Z,99337.00
2023-03-26T18:00:32.774Z,99339.88
2023-03-26T18:03:06.465Z,99150.09
2023-03-26T18:05:34.534Z,99316.16
2023-03-26T18:08:16.100Z,99344.81
2023-03-26T18:10:48.726Z,99342.16
2023-03-26T18:13:52.642Z,99484.66
2023-03-26T18:16:36.636Z,99337.66
2023-03-26T18:19:18.186Z,99342.59
2023-03-26T18:21:53.125Z,99345.56
2023-03-26T18:24:25.298Z,99350.50
2023-03-26T18:27:00.100Z,99389.91
2023-03-26T18:29:57.537Z,99351.72
2023-03-26T18:32:40.896Z,99356.47
2023-03-26T18:35:20.183Z,99355.09
2023-03-26T18:37:49.969Z,99356.06
2023-03-26T18:40:20.208Z,99362.41
2023-03-26T18:42:56.332Z,99291.88
2023-03-26T18:45:33.599Z,99361.03
2023-03-26T18:48:04.810Z,99360.31
2023-03-26T18:50:38.725Z,99308.44
2023-03-26T18:53:07.217Z,99370.59
2023-03-26T18:55:39.212Z,99373.97
2023-03-26T18:58:28.009Z,99380.59
2023-03-26T19:01:03.988Z,99277.09
2023-03-26T19:03:43.638Z,99380.22
2023-03-26T19:06:13.735Z,99383.41
2023-03-26T19:08:43.717Z,99305.34
2023-03-26T19:11:12.101Z,99378.19
2023-03-26T19:13:43.014Z,99233.50
2023-03-26T19:16:22.800Z,99380.28
2023-03-26T19:18:50.158Z,99233.03
2023-03-26T19:21:18.992Z,99378.94
2023-03-26T19:23:47.271Z,99219.53
2023-03-26T19:26:14.367Z,99382.50
2023-03-26T19:28:50.707Z,99387.09
2023-03-26T19:31:32.838Z,98888.66
2023-03-26T19:34:00.845Z,99375.25
2023-03-26T19:36:52.185Z,99386.56
2023-03-26T19:39:34.681Z,99385.94
2023-03-26T19:42:06.501Z,99384.38
2023-03-26T19:44:33.624Z,99396.56
2023-03-26T19:47:07.744Z,99395.41
2023-03-26T19:49:51.045Z,99396.44
2023-03-26T19:52:24.870Z,99221.66
2023-03-26T19:55:16.609Z,99342.97
2023-03-26T19:57:43.273Z,99169.03
2023-03-26T20:00:14.118Z,99451.69
2023-03-26T20:02:42.388Z,99413.91
2023-03-26T20:05:28.924Z,99409.91
2023-03-26T20:07:58.097Z,99410.69
2023-03-26T20:10:24.703Z,99421.94
2023-03-26T20:12:51.683Z,98704.97
2023-03-26T20:15:27.931Z,99273.03
2023-03-26T20:17:55.678Z,99293.63
2023-03-26T20:20:27.255Z,99426.66
2023-03-26T20:22:54.521Z,99420.78
2023-03-26T20:25:27.718Z,99274.34
2023-03-26T20:27:58.338Z,99415.50
2023-03-26T20:33:11.917Z,99400.16
2023-03-26T20:35:39.744Z,99425.06
2023-03-26T20:38:09.609Z,99417.94
2023-03-26T20:40:38.362Z,99419.19
2023-03-26T20:43:11.745Z,98909.38
2023-03-26T20:45:38.812Z,99425.72
2023-03-26T20:48:05.750Z,99373.78
2023-03-26T20:50:35.710Z,99428.09
2023-03-26T20:53:02.926Z,99254.53
2023-03-26T20:55:29.463Z,99429.09
2023-03-26T20:57:56.265Z,99425.81
2023-03-26T21:00:23.440Z,99373.31
2023-03-26T21:02:54.555Z,99451.09
2023-03-26T21:05:26.996Z,99434.13
2023-03-26T21:07:58.254Z,99431.78
2023-03-26T21:10:27.408Z,99427.16
2023-03-26T21:13:06.010Z,99417.13
2023-03-26T21:15:33.662Z,99246.91
2023-03-26T21:18:01.000Z,99423.94
2023-03-26T21:20:28.445Z,99415.34
2023-03-26T21:23:04.637Z,99427.03
2023-03-26T21:25:46.385Z,99351.53
2023-03-26T21:28:47.874Z,99424.88
2023-03-26T21:31:20.557Z,99373.91
2023-03-26T21:33:49.365Z,99427.56
2023-03-26T21:36:18.434Z,99429.97
2023-03-26T21:38:46.123Z,99427.69
2023-03-26T21:41:36.529Z,99423.91
2023-03-26T21:44:03.626Z,99364.75
2023-03-26T21:46:31.846Z,99320.88
2023-03-26T21:48:59.127Z,99101.22
2023-03-26T21:51:26.258Z,99431.53
2023-03-26T21:53:53.539Z,99099.97
2023-03-26T21:56:41.617Z,99453.84
2023-03-26T21:59:51.338Z,99423.56
2023-03-26T22:02:50.043Z,99442.31
2023-03-26T22:05:20.054Z,99205.09
2023-03-26T22:08:02.903Z,99424.63
2023-03-26T22:10:31.021Z,99425.00
2023-03-26T22:12:58.517Z,99427.66
2023-03-26T22:15:30.994Z,99424.00
2023-03-26T22:18:02.642Z,99424.59
2023-03-26T22:20:29.545Z,99333.94
2023-03-26T22:22:56.681Z,99419.63
2023-03-26T22:25:24.092Z,99434.56
2023-03-26T22:27:51.544Z,99438.72
2023-03-26T22:30:20.738Z,99453.19
2023-03-26T22:32:48.531Z,99435.63
2023-03-26T22:35:15.533Z,99465.38
2023-03-26T22:37:42.586Z,99205.00
2023-03-26T22:40:10.363Z,99436.47
2023-03-26T22:42:37.169Z,99012.88
2023-03-26T22:45:04.618Z,99439.81
2023-03-26T22:47:33.630Z,99447.91
2023-03-26T22:50:00.824Z,99449.38
2023-03-26T22:52:28.069Z,99455.91
2023-03-26T22:54:54.775Z,99461.72
2023-03-26T22:57:24.337Z,98930.91
2023-03-26T22:59:52.052Z,99393.72
2023-03-26T23:02:19.363Z,99451.03
2023-03-26T23:04:47.812Z,99454.84
2023-03-26T23:07:14.566Z,99450.78
2023-03-26T23:09:41.602Z,99438.47
2023-03-26T23:12:08.379Z,99454.44
2023-03-26T23:14:36.222Z,99453.72
2023-03-26T23:17:02.960Z,99462.09
2023-03-26T23:19:30.196Z,99316.00
2023-03-26T23:21:57.376Z,99464.16
2023-03-26T23:24:26.368Z,99471.31
2023-03-26T23:26:53.289Z,99270.47
2023-03-26T23:29:20.111Z,99468.56
2023-03-26T23:31:46.934Z,99392.69
2023-03-26T23:34:14.201Z,99462.34
2023-03-26T23:36:41.901Z,99322.69
2023-03-26T23:39:09.249Z,99473.09
2023-03-26T23:41:36.825Z,99298.81
2023-03-26T23:44:04.144Z,99471.22
2023-03-26T23:46:33.672Z,99469.41
2023-03-26T23:49:03.694Z,99479.56
2023-03-26T23:51:31.254Z,99505.97
2023-03-26T23:53:58.454Z,99493.81
2023-03-26T23:56:27.529Z,98909.75
2023-03-26T23:58:55.181Z,99487.75
